Aviation Digital Data Service (ADDS)

Output produced by METARs form (0828 UTC 13 August 2022)
found at http://www.aviationweather.gov/metar/data/
 
KDRO 130753Z AUTO 00000KT 10SM CLR 19/08 A3036 RMK AO2 SLP180 T01890083
KDRO 130521Z 1306/1406 VRB04KT P6SM BKN100 
     FM131800 18007KT P6SM FEW060 FEW100 
     FM132100 21010KT P6SM VCTS FEW090CB SCT100 
     FM140200 03006KT P6SM BKN100
       
KFMN 130753Z AUTO 27004KT 10SM CLR 23/11 A3026 RMK AO2 SLP171 T02330106
KFMN 130520Z 1306/1406 12007KT P6SM SCT100 SCT250 
     FM130900 08006KT P6SM SCT250 
     FM131900 22007KT P6SM SCT100 SCT250 
     FM140100 25007KT P6SM SCT120 SCT250